createdAt,value
2018-09-06T00:01:00.173Z,10.33
2018-09-06T00:03:28.285Z,9.77
2018-09-06T00:05:56.008Z,9.77
2018-09-06T00:08:24.084Z,10.37
2018-09-06T00:10:51.967Z,9.87
2018-09-06T00:13:19.781Z,10.10
2018-09-06T00:15:47.871Z,10.13
2018-09-06T00:18:15.588Z,10.77
2018-09-06T00:20:43.347Z,8.87
2018-09-06T00:23:11.200Z,10.20
2018-09-06T00:25:42.677Z,9.43
2018-09-06T00:28:10.431Z,9.17
2018-09-06T00:30:38.104Z,9.30
2018-09-06T00:33:05.843Z,9.67
2018-09-06T00:35:34.056Z,10.67
2018-09-06T00:38:01.907Z,10.13
2018-09-06T00:40:29.591Z,10.60
2018-09-06T00:42:57.431Z,9.73
2018-09-06T00:45:25.204Z,10.33
2018-09-06T00:47:52.898Z,9.70
2018-09-06T00:50:21.378Z,10.83
2018-09-06T00:52:50.349Z,11.00
2018-09-06T00:55:18.830Z,9.27
2018-09-06T00:57:46.655Z,10.57
2018-09-06T01:00:14.443Z,9.70
2018-09-06T01:02:42.594Z,9.83
2018-09-06T01:05:10.318Z,11.20
2018-09-06T01:07:38.035Z,10.87
2018-09-06T01:10:06.850Z,10.63
2018-09-06T01:12:34.730Z,10.23
2018-09-06T01:15:02.818Z,10.40
2018-09-06T01:17:30.535Z,10.67
2018-09-06T01:19:58.255Z,10.67
2018-09-06T01:22:26.037Z,10.60
2018-09-06T01:24:54.071Z,11.07
2018-09-06T01:27:21.754Z,11.50
2018-09-06T01:29:49.531Z,9.97
2018-09-06T01:32:20.738Z,10.33
2018-09-06T01:34:48.533Z,11.17
2018-09-06T01:37:17.500Z,11.03
2018-09-06T01:39:45.247Z,10.50
2018-09-06T01:42:13.032Z,11.53
2018-09-06T01:44:40.815Z,10.10
2018-09-06T01:47:08.538Z,10.70
2018-09-06T01:49:36.475Z,10.23
2018-09-06T01:52:04.194Z,10.77
2018-09-06T01:54:31.957Z,9.87
2018-09-06T01:56:59.715Z,10.60
2018-09-06T01:59:32.983Z,10.40
2018-09-06T02:02:00.773Z,11.13
2018-09-06T02:04:28.463Z,11.00
2018-09-06T02:06:56.203Z,9.77
2018-09-06T02:09:23.987Z,10.17
2018-09-06T02:11:51.657Z,9.77
2018-09-06T02:14:19.383Z,10.77
2018-09-06T02:16:47.219Z,9.77
2018-09-06T02:19:14.940Z,9.57
2018-09-06T02:21:42.735Z,10.50
2018-09-06T02:24:10.435Z,10.90
2018-09-06T02:26:38.195Z,10.23
2018-09-06T02:29:05.943Z,9.83
2018-09-06T02:31:33.695Z,10.03
2018-09-06T02:34:01.737Z,9.77
2018-09-06T02:36:29.520Z,10.83
2018-09-06T02:38:57.255Z,11.00
2018-09-06T02:41:25.172Z,10.70
2018-09-06T02:43:52.899Z,11.17
2018-09-06T02:46:20.665Z,10.87
2018-09-06T02:48:48.496Z,10.80
2018-09-06T02:51:17.475Z,11.53
2018-09-06T02:53:45.273Z,10.90
2018-09-06T02:56:13.593Z,11.43
2018-09-06T02:58:41.439Z,10.80
2018-09-06T03:01:09.490Z,11.03
2018-09-06T03:06:38.770Z,11.30
2018-09-06T03:09:07.547Z,10.63
2018-09-06T03:11:41.497Z,12.00
2018-09-06T03:14:09.659Z,11.27
2018-09-06T03:16:37.456Z,11.40
2018-09-06T03:19:05.173Z,10.33
2018-09-06T03:21:32.848Z,11.03
2018-09-06T03:24:01.000Z,10.77
2018-09-06T03:26:28.667Z,10.97
2018-09-06T03:28:56.812Z,10.67
2018-09-06T03:31:24.496Z,11.50
2018-09-06T03:33:52.281Z,10.93
2018-09-06T03:36:19.985Z,10.47
2018-09-06T03:38:47.700Z,11.37
2018-09-06T03:41:15.680Z,11.10
2018-09-06T03:43:43.432Z,10.77
2018-09-06T03:46:11.286Z,10.03
2018-09-06T03:48:39.068Z,10.13
2018-09-06T03:51:06.800Z,10.33
2018-09-06T03:53:34.970Z,10.43
2018-09-06T03:56:02.759Z,10.23
2018-09-06T03:58:30.568Z,11.30
2018-09-06T04:00:58.282Z,11.40
2018-09-06T04:03:26.071Z,10.63
2018-09-06T04:05:53.790Z,11.43
2018-09-06T04:08:21.619Z,11.60
2018-09-06T04:10:49.347Z,11.10
2018-09-06T04:13:17.060Z,11.03
2018-09-06T04:15:44.754Z,10.63
2018-09-06T04:18:12.745Z,11.50
2018-09-06T04:20:40.462Z,10.47
2018-09-06T04:23:08.134Z,10.10
2018-09-06T04:25:36.092Z,11.90
2018-09-06T04:28:03.877Z,11.43
2018-09-06T04:30:31.624Z,10.40
2018-09-06T04:32:59.351Z,12.10
2018-09-06T04:35:27.302Z,10.93
2018-09-06T04:37:55.125Z,11.50
2018-09-06T04:40:22.927Z,10.90
2018-09-06T04:42:54.277Z,11.43
2018-09-06T04:45:21.947Z,11.43
2018-09-06T04:47:49.813Z,10.57
2018-09-06T04:50:17.604Z,10.50
2018-09-06T04:52:45.325Z,11.80
2018-09-06T04:55:13.148Z,10.43
2018-09-06T04:57:40.863Z,11.73
2018-09-06T05:00:08.671Z,11.63
2018-09-06T05:02:36.364Z,11.20
2018-09-06T05:05:04.435Z,10.03
2018-09-06T05:07:32.203Z,10.63
2018-09-06T05:09:59.888Z,10.97
2018-09-06T05:12:28.043Z,10.43
2018-09-06T05:14:55.735Z,11.20
2018-09-06T05:17:23.464Z,10.97
2018-09-06T05:19:51.216Z,10.80
2018-09-06T05:22:19.207Z,11.30
2018-09-06T05:24:46.897Z,10.40
2018-09-06T05:27:14.746Z,10.80
2018-09-06T05:29:42.424Z,9.90
2018-09-06T05:32:10.280Z,11.00
2018-09-06T05:34:38.039Z,11.07
2018-09-06T05:37:05.975Z,10.87
2018-09-06T05:39:34.026Z,9.97
2018-09-06T05:42:08.436Z,10.53
2018-09-06T05:44:36.160Z,11.13
2018-09-06T05:47:03.942Z,10.40
2018-09-06T05:49:31.623Z,10.47
2018-09-06T05:51:59.472Z,10.17
2018-09-06T05:54:27.893Z,10.00
2018-09-06T05:56:55.839Z,10.77
2018-09-06T05:59:26.890Z,10.33
2018-09-06T06:01:54.608Z,10.40
2018-09-06T06:04:22.379Z,11.50
2018-09-06T06:06:50.195Z,10.80
2018-09-06T06:09:18.031Z,11.83
2018-09-06T06:11:45.815Z,10.60
2018-09-06T06:14:13.845Z,9.97
2018-09-06T06:16:41.553Z,9.83
2018-09-06T06:19:09.305Z,9.67
2018-09-06T06:21:37.730Z,10.87
2018-09-06T06:24:05.647Z,10.03
2018-09-06T06:26:33.384Z,10.40
2018-09-06T06:29:01.250Z,10.47
2018-09-06T06:31:29.036Z,9.77
2018-09-06T06:33:56.929Z,10.10
2018-09-06T06:36:24.633Z,10.33
2018-09-06T06:38:52.460Z,10.30
2018-09-06T06:41:20.194Z,11.13
2018-09-06T06:43:48.019Z,9.97
2018-09-06T06:46:15.800Z,10.33
2018-09-06T06:48:43.567Z,9.73
2018-09-06T06:51:11.432Z,9.67
2018-09-06T06:53:39.167Z,9.47
2018-09-06T06:56:06.962Z,9.87
2018-09-06T06:58:34.832Z,9.07
2018-09-06T07:01:02.776Z,9.97
2018-09-06T07:03:30.437Z,9.73
2018-09-06T07:05:58.511Z,9.37
2018-09-06T07:08:26.279Z,8.80
2018-09-06T07:10:53.927Z,9.50
2018-09-06T07:13:21.639Z,8.37
2018-09-06T07:15:49.292Z,9.13
2018-09-06T07:18:17.143Z,9.00
2018-09-06T07:20:44.788Z,8.47
2018-09-06T07:23:12.584Z,7.43
2018-09-06T07:25:40.275Z,8.63
2018-09-06T07:28:08.091Z,8.57
2018-09-06T07:30:35.948Z,8.27
2018-09-06T07:33:03.627Z,8.40
2018-09-06T07:35:31.559Z,7.60
2018-09-06T07:37:59.420Z,6.70
2018-09-06T07:40:27.230Z,8.03
2018-09-06T07:42:55.315Z,6.77
2018-09-06T07:45:23.026Z,7.17
2018-09-06T07:47:50.878Z,5.57
2018-09-06T07:50:18.980Z,6.10
2018-09-06T07:52:46.719Z,5.77
2018-09-06T07:55:14.499Z,6.03
2018-09-06T07:57:42.292Z,5.97
2018-09-06T08:00:10.399Z,5.33
2018-09-06T08:02:38.124Z,5.37
2018-09-06T08:05:05.947Z,6.80
2018-09-06T08:07:33.175Z,7.40
2018-09-06T08:10:01.508Z,6.43
2018-09-06T08:12:29.298Z,6.07
2018-09-06T08:14:57.191Z,5.60
2018-09-06T08:17:24.926Z,6.30
2018-09-06T08:19:52.690Z,5.50
2018-09-06T08:22:20.548Z,6.23
2018-09-06T08:24:48.284Z,6.20
2018-09-06T08:27:16.249Z,6.50
2018-09-06T08:29:44.099Z,6.70
2018-09-06T08:32:12.042Z,7.63
2018-09-06T08:34:39.764Z,7.73
2018-09-06T08:37:07.484Z,7.10
2018-09-06T08:39:35.240Z,6.73
2018-09-06T08:42:03.046Z,8.23
2018-09-06T08:44:30.831Z,7.17
2018-09-06T08:46:58.688Z,8.70
2018-09-06T08:49:26.411Z,8.90
2018-09-06T08:51:54.264Z,8.53
2018-09-06T08:54:21.967Z,9.27
2018-09-06T08:56:49.655Z,8.43
2018-09-06T08:59:17.414Z,7.27
2018-09-06T09:01:45.164Z,6.97
2018-09-06T09:04:12.914Z,6.93
2018-09-06T09:06:40.756Z,6.67
2018-09-06T09:09:15.200Z,5.53
2018-09-06T09:11:42.986Z,6.73
2018-09-06T09:14:10.771Z,6.40
2018-09-06T09:16:38.570Z,8.03
2018-09-06T09:19:06.984Z,6.20
2018-09-06T09:21:34.848Z,6.90
2018-09-06T09:24:03.996Z,5.83
2018-09-06T09:26:32.007Z,6.67
2018-09-06T09:28:59.776Z,6.80
2018-09-06T09:31:27.516Z,5.87
2018-09-06T09:33:55.759Z,5.47
2018-09-06T09:36:23.567Z,5.40
2018-09-06T09:38:51.343Z,5.20
2018-09-06T09:41:19.516Z,5.40
2018-09-06T09:43:47.271Z,4.97
2018-09-06T09:48:42.291Z,4.47
2018-09-06T09:51:10.040Z,5.37
2018-09-06T09:53:38.128Z,5.23
2018-09-06T09:56:05.995Z,5.43
2018-09-06T09:58:33.846Z,4.80
2018-09-06T10:01:01.791Z,4.30
2018-09-06T10:03:35.290Z,5.33
2018-09-06T10:06:08.797Z,4.83
2018-09-06T10:08:42.238Z,4.77
2018-09-06T10:11:10.115Z,4.80
2018-09-06T10:13:37.855Z,5.57
2018-09-06T10:16:05.770Z,4.73
2018-09-06T10:18:33.600Z,4.80
2018-09-06T10:21:01.387Z,6.37
2018-09-06T10:23:29.221Z,4.53
2018-09-06T10:25:57.102Z,5.40
2018-09-06T10:28:24.895Z,5.50
2018-09-06T10:30:52.635Z,5.10
2018-09-06T10:33:20.349Z,5.43
2018-09-06T10:35:48.207Z,4.13
2018-09-06T10:38:16.247Z,4.80
2018-09-06T10:40:44.029Z,5.17
2018-09-06T10:43:11.816Z,5.30
2018-09-06T10:45:39.583Z,4.07
2018-09-06T10:48:07.305Z,5.67
2018-09-06T10:50:35.080Z,5.33
2018-09-06T10:53:02.800Z,5.10
2018-09-06T10:55:30.677Z,4.77
2018-09-06T10:57:58.503Z,5.20
2018-09-06T11:00:27.931Z,4.53
2018-09-06T11:02:56.543Z,4.87
2018-09-06T11:05:24.235Z,4.80
2018-09-06T11:07:52.052Z,4.87
2018-09-06T11:10:20.070Z,5.50
2018-09-06T11:12:47.891Z,6.03
2018-09-06T11:15:15.632Z,4.60
2018-09-06T11:17:44.005Z,4.93
2018-09-06T11:20:11.814Z,4.80
2018-09-06T11:22:39.784Z,4.43
2018-09-06T11:25:08.124Z,4.97
2018-09-06T11:27:39.389Z,4.80
2018-09-06T11:30:07.275Z,5.37
2018-09-06T11:32:34.972Z,4.07
2018-09-06T11:35:02.868Z,4.60
2018-09-06T11:37:30.654Z,4.53
2018-09-06T11:39:58.874Z,6.00
2018-09-06T11:42:26.535Z,4.97
2018-09-06T11:44:54.255Z,5.33
2018-09-06T11:47:22.134Z,4.80
2018-09-06T11:49:49.762Z,4.50
2018-09-06T11:52:17.741Z,4.60
2018-09-06T11:54:45.504Z,4.13
2018-09-06T11:57:13.339Z,4.40
2018-09-06T11:59:41.263Z,4.87
2018-09-06T12:02:09.084Z,5.10
2018-09-06T12:04:37.176Z,5.07
2018-09-06T12:07:05.194Z,4.30
2018-09-06T12:09:32.879Z,4.60
2018-09-06T12:12:00.872Z,4.93
2018-09-06T12:14:28.603Z,5.40
2018-09-06T12:16:56.339Z,4.93
2018-09-06T12:19:24.046Z,4.60
2018-09-06T12:21:51.874Z,4.97
2018-09-06T12:24:19.648Z,5.30
2018-09-06T12:26:47.466Z,5.77
2018-09-06T12:29:15.239Z,5.73
2018-09-06T12:31:43.272Z,5.10
2018-09-06T12:34:11.978Z,5.47
2018-09-06T12:36:42.068Z,5.13
2018-09-06T12:41:49.227Z,6.03
2018-09-06T12:44:20.288Z,7.40
2018-09-06T12:46:48.199Z,5.83
2018-09-06T12:49:15.924Z,5.93
2018-09-06T12:51:49.990Z,6.80
2018-09-06T12:54:18.308Z,5.63
2018-09-06T12:56:46.036Z,6.00
2018-09-06T12:59:13.736Z,5.80
2018-09-06T13:01:41.514Z,5.40
2018-09-06T13:04:09.354Z,4.97
2018-09-06T13:06:37.079Z,5.90
2018-09-06T13:09:05.995Z,5.43
2018-09-06T13:11:34.089Z,5.37
2018-09-06T13:14:01.852Z,5.97
2018-09-06T13:16:29.580Z,5.27
2018-09-06T13:18:57.599Z,5.63
2018-09-06T13:21:25.296Z,4.73
2018-09-06T13:23:52.964Z,5.47
2018-09-06T13:26:20.689Z,5.17
2018-09-06T13:28:48.511Z,5.67
2018-09-06T13:31:16.341Z,5.70
2018-09-06T13:33:44.787Z,5.50
2018-09-06T13:36:12.619Z,5.30
2018-09-06T13:38:40.303Z,5.47
2018-09-06T13:41:08.196Z,4.97
2018-09-06T13:43:35.918Z,6.10
2018-09-06T13:46:03.666Z,5.27
2018-09-06T13:48:31.318Z,4.10
2018-09-06T13:50:59.019Z,4.67
2018-09-06T13:53:26.711Z,4.63
2018-09-06T13:55:54.433Z,4.80
2018-09-06T13:58:22.183Z,4.43
2018-09-06T14:00:50.243Z,4.40
2018-09-06T14:03:18.119Z,4.33
2018-09-06T14:05:46.601Z,3.80
2018-09-06T14:08:14.363Z,4.27
2018-09-06T14:10:42.079Z,4.23
2018-09-06T14:13:10.013Z,4.43
2018-09-06T14:15:37.691Z,4.20
2018-09-06T14:18:05.675Z,4.67
2018-09-06T14:20:33.423Z,6.30
2018-09-06T14:23:01.235Z,5.40
2018-09-06T14:25:32.952Z,5.57
2018-09-06T14:28:01.767Z,4.70
2018-09-06T14:30:29.495Z,5.00
2018-09-06T14:32:57.212Z,4.07
2018-09-06T14:35:24.931Z,4.23
2018-09-06T14:37:52.714Z,4.40
2018-09-06T14:40:20.442Z,4.10
2018-09-06T14:42:49.272Z,4.20
2018-09-06T14:45:17.005Z,4.60
2018-09-06T14:47:45.023Z,4.00
2018-09-06T14:50:12.779Z,4.10
2018-09-06T14:52:40.452Z,4.67
2018-09-06T14:55:08.174Z,4.73
2018-09-06T14:57:36.415Z,4.87
2018-09-06T15:00:04.337Z,4.40
2018-09-06T15:02:32.019Z,3.93
2018-09-06T15:04:59.743Z,3.87
2018-09-06T15:07:27.523Z,3.47
2018-09-06T15:09:55.202Z,3.17
2018-09-06T15:12:22.951Z,3.83
2018-09-06T15:14:50.711Z,3.70
2018-09-06T15:17:18.466Z,4.90
2018-09-06T15:19:46.168Z,4.73
2018-09-06T15:22:13.960Z,3.73
2018-09-06T15:24:41.952Z,4.10
2018-09-06T15:27:09.677Z,3.97
2018-09-06T15:29:37.396Z,3.60
2018-09-06T15:32:10.864Z,3.80
2018-09-06T15:34:38.697Z,4.07
2018-09-06T15:37:06.423Z,3.80
2018-09-06T15:39:34.417Z,3.70
2018-09-06T15:42:02.227Z,3.20
2018-09-06T15:44:30.096Z,3.20
2018-09-06T15:46:57.773Z,3.57
2018-09-06T15:49:25.515Z,3.97
2018-09-06T15:51:53.360Z,3.23
2018-09-06T15:54:21.076Z,3.47
2018-09-06T15:56:48.917Z,3.30
2018-09-06T15:59:16.823Z,3.20
2018-09-06T16:01:44.850Z,2.97
2018-09-06T16:04:12.597Z,3.00
2018-09-06T16:06:40.359Z,3.10
2018-09-06T16:09:08.048Z,3.27
2018-09-06T16:11:35.801Z,3.40
2018-09-06T16:14:03.586Z,3.90
2018-09-06T16:16:31.367Z,3.40
2018-09-06T16:18:59.051Z,3.33
2018-09-06T16:21:26.703Z,3.37
2018-09-06T16:23:54.367Z,4.07
2018-09-06T16:26:22.065Z,3.97
2018-09-06T16:28:49.745Z,4.40
2018-09-06T16:31:17.479Z,3.47
2018-09-06T16:33:45.307Z,3.50
2018-09-06T16:36:13.191Z,3.67
2018-09-06T16:38:40.992Z,4.30
2018-09-06T16:41:08.691Z,3.47
2018-09-06T16:43:36.604Z,4.00
2018-09-06T16:46:04.263Z,5.50
2018-09-06T16:48:32.125Z,4.63
2018-09-06T16:50:59.899Z,4.70
2018-09-06T16:53:27.616Z,4.77
2018-09-06T16:55:55.827Z,4.87
2018-09-06T16:58:23.631Z,5.33
2018-09-06T17:00:51.528Z,5.20
2018-09-06T17:03:19.265Z,4.80
2018-09-06T17:05:47.012Z,5.23
2018-09-06T17:08:14.783Z,5.27
2018-09-06T17:10:42.464Z,5.33
2018-09-06T17:13:13.792Z,5.03
2018-09-06T17:15:41.509Z,5.47
2018-09-06T17:18:09.267Z,5.50
2018-09-06T17:20:36.991Z,5.27
2018-09-06T17:23:04.752Z,5.83
2018-09-06T17:28:07.232Z,6.93
2018-09-06T17:30:35.774Z,5.77
2018-09-06T17:33:03.543Z,5.17
2018-09-06T17:35:31.170Z,4.07
2018-09-06T17:37:58.838Z,4.70
2018-09-06T17:40:26.711Z,2.90
2018-09-06T17:42:54.568Z,4.67
2018-09-06T17:45:22.232Z,4.90
2018-09-06T17:47:50.167Z,5.27
2018-09-06T17:50:17.893Z,5.10
2018-09-06T17:52:45.664Z,6.43
2018-09-06T17:55:13.463Z,6.17
2018-09-06T17:57:41.169Z,5.93
2018-09-06T18:00:09.021Z,5.43
2018-09-06T18:02:36.748Z,5.83
2018-09-06T18:05:04.739Z,5.30
2018-09-06T18:07:32.439Z,4.97
2018-09-06T18:10:00.282Z,4.97
2018-09-06T18:12:28.100Z,5.90
2018-09-06T18:14:56.077Z,5.23
2018-09-06T18:17:24.547Z,5.27
2018-09-06T18:19:52.448Z,5.37
2018-09-06T18:22:20.297Z,5.23
2018-09-06T18:24:51.620Z,4.40
2018-09-06T18:27:19.356Z,4.80
2018-09-06T18:29:47.378Z,4.17
2018-09-06T18:32:15.100Z,4.77
2018-09-06T18:34:42.880Z,5.27
2018-09-06T18:37:10.782Z,5.70
2018-09-06T18:39:38.651Z,5.23
2018-09-06T18:42:06.377Z,5.07
2018-09-06T18:44:34.172Z,4.80
2018-09-06T18:47:02.339Z,5.47
2018-09-06T18:49:30.131Z,4.80
2018-09-06T18:51:57.945Z,5.30
2018-09-06T18:54:32.865Z,5.40
2018-09-06T18:57:00.843Z,6.00
2018-09-06T18:59:28.623Z,6.03
2018-09-06T19:01:56.386Z,6.60
2018-09-06T19:04:24.050Z,6.07
2018-09-06T19:06:52.012Z,5.33
2018-09-06T19:09:19.880Z,6.60
2018-09-06T19:11:47.811Z,6.37
2018-09-06T19:14:16.117Z,6.70
2018-09-06T19:16:43.984Z,6.20
2018-09-06T19:19:11.819Z,6.23
2018-09-06T19:21:39.647Z,4.93
2018-09-06T19:24:07.438Z,5.57
2018-09-06T19:26:35.240Z,6.37
2018-09-06T19:29:03.116Z,6.17
2018-09-06T19:31:30.901Z,7.47
2018-09-06T19:33:59.108Z,6.53
2018-09-06T19:36:26.919Z,8.67
2018-09-06T19:38:55.033Z,6.30
2018-09-06T19:41:22.751Z,7.10
2018-09-06T19:43:50.412Z,6.80
2018-09-06T19:46:18.164Z,8.83
2018-09-06T19:48:45.923Z,8.40
2018-09-06T19:51:13.588Z,7.50
2018-09-06T19:53:44.825Z,7.07
2018-09-06T19:56:12.587Z,6.10
2018-09-06T19:58:40.472Z,7.03
2018-09-06T20:01:08.234Z,6.43
2018-09-06T20:03:36.005Z,8.23
2018-09-06T20:06:03.901Z,8.50
2018-09-06T20:08:31.607Z,7.47
2018-09-06T20:10:59.351Z,7.50
2018-09-06T20:13:27.005Z,7.60
2018-09-06T20:15:55.062Z,6.60
2018-09-06T20:18:22.843Z,5.70
2018-09-06T20:20:50.710Z,7.33
2018-09-06T20:23:18.403Z,6.50
2018-09-06T20:25:47.179Z,7.93
2018-09-06T20:28:16.294Z,7.90
2018-09-06T20:30:43.893Z,6.27
2018-09-06T20:33:12.313Z,5.97
2018-09-06T20:35:40.264Z,7.10
2018-09-06T20:38:07.994Z,7.50
2018-09-06T20:40:36.769Z,7.33
2018-09-06T20:43:04.815Z,6.97
2018-09-06T20:45:32.543Z,7.57
2018-09-06T20:48:00.279Z,7.30
2018-09-06T20:50:28.643Z,6.53
2018-09-06T20:52:57.052Z,6.30
2018-09-06T20:55:24.855Z,7.47
2018-09-06T20:57:52.589Z,9.20
2018-09-06T21:00:20.322Z,8.20
2018-09-06T21:02:48.041Z,7.87
2018-09-06T21:05:16.040Z,8.00
2018-09-06T21:07:43.783Z,8.83
2018-09-06T21:10:11.484Z,9.07
2018-09-06T21:12:39.211Z,12.27
2018-09-06T21:15:06.963Z,12.13
2018-09-06T21:17:34.672Z,16.70
2018-09-06T21:20:02.925Z,17.43
2018-09-06T21:22:30.691Z,13.97
2018-09-06T21:24:58.540Z,11.03
2018-09-06T21:27:26.202Z,16.00
2018-09-06T21:29:53.955Z,15.10
2018-09-06T21:32:21.589Z,16.03
2018-09-06T21:34:49.299Z,13.63
2018-09-06T21:37:17.071Z,12.27
2018-09-06T21:39:44.783Z,11.67
2018-09-06T21:42:12.511Z,11.87
2018-09-06T21:44:40.187Z,13.67
2018-09-06T21:47:07.896Z,14.63
2018-09-06T21:49:36.483Z,11.73
2018-09-06T21:52:04.424Z,13.60
2018-09-06T21:54:32.144Z,14.97
2018-09-06T21:56:59.847Z,19.53
2018-09-06T21:59:27.647Z,12.47
2018-09-06T22:01:55.327Z,13.13
2018-09-06T22:04:23.006Z,17.30
2018-09-06T22:06:50.707Z,17.60
2018-09-06T22:09:18.390Z,14.00
2018-09-06T22:11:46.159Z,13.77
2018-09-06T22:14:13.878Z,16.67
2018-09-06T22:16:41.650Z,12.83
2018-09-06T22:19:09.373Z,13.67
2018-09-06T22:21:37.298Z,11.57
2018-09-06T22:24:05.063Z,11.60
2018-09-06T22:26:32.750Z,11.70
2018-09-06T22:29:00.427Z,13.10
2018-09-06T22:31:28.131Z,12.63
2018-09-06T22:33:55.824Z,13.20
2018-09-06T22:36:23.524Z,11.37
2018-09-06T22:38:51.219Z,12.20
2018-09-06T22:41:19.023Z,11.80
2018-09-06T22:43:46.906Z,10.73
2018-09-06T22:46:15.597Z,9.80
2018-09-06T22:48:43.414Z,10.60
2018-09-06T22:51:11.040Z,12.30
2018-09-06T22:53:38.763Z,9.93
2018-09-06T22:56:06.463Z,13.30
2018-09-06T22:58:34.238Z,9.63
2018-09-06T23:01:01.925Z,11.30
2018-09-06T23:03:35.351Z,11.10
2018-09-06T23:06:03.048Z,11.90
2018-09-06T23:08:30.800Z,12.17
2018-09-06T23:10:58.499Z,12.43
2018-09-06T23:13:26.211Z,11.43
2018-09-06T23:15:53.900Z,11.10
2018-09-06T23:18:21.621Z,12.00
2018-09-06T23:20:49.497Z,11.73
2018-09-06T23:23:17.697Z,11.57
2018-09-06T23:25:45.432Z,12.23
2018-09-06T23:28:13.155Z,11.37
2018-09-06T23:30:41.409Z,11.77
2018-09-06T23:33:09.171Z,12.13
2018-09-06T23:35:36.879Z,10.03
2018-09-06T23:38:04.667Z,12.60
2018-09-06T23:40:36.938Z,11.60
2018-09-06T23:43:04.639Z,11.53
2018-09-06T23:45:32.347Z,9.50
2018-09-06T23:48:00.059Z,9.70
2018-09-06T23:50:27.815Z,8.63
2018-09-06T23:52:55.592Z,11.23
2018-09-06T23:55:23.263Z,10.07
2018-09-06T23:57:51.187Z,9.40
